Time;durP1;ratioP1;P1;durP2;ratioP2;P2;SDS_P1;SDS_P2;PMS_P1;PMS_P2;Temp;Humidity;BMP_temperature;BMP_pressure;BME280_temperature;BME280_humidity;BME280_pressure;Samples;Min_cycle;Max_cycle;Signal;HPM_P1;HPM_P2
2022/08/09 00:00:19;;;;;;;4.93;4.33;;;;;;;26.60;68.66;99394.47;5111317;28;20210;-67
2022/08/09 00:02:46;;;;;;;4.97;4.47;;;;;;;26.56;70.03;99393.09;5111755;28;20213;-67
2022/08/09 00:05:13;;;;;;;4.93;4.63;;;;;;;26.54;70.21;99402.94;5110604;28;20202;-67
2022/08/09 00:07:42;;;;;;;4.67;4.47;;;;;;;26.55;71.38;99394.09;5111339;28;20226;-67
2022/08/09 00:10:11;;;;;;;6.03;5.57;;;;;;;26.58;71.78;99396.41;5110621;28;20198;-67
2022/08/09 00:12:38;;;;;;;4.83;4.63;;;;;;;26.56;71.65;99393.09;5111201;28;20190;-67
2022/08/09 00:15:05;;;;;;;4.70;4.43;;;;;;;26.48;72.34;99385.97;5111249;28;20263;-67
2022/08/09 00:17:32;;;;;;;4.73;4.53;;;;;;;26.50;72.68;99393.69;5111333;28;20205;-67
2022/08/09 00:19:59;;;;;;;4.47;4.13;;;;;;;26.45;72.70;99388.06;5111622;28;20212;-67
2022/08/09 00:22:26;;;;;;;4.90;4.60;;;;;;;26.30;73.13;99373.75;5111449;28;20214;-67
2022/08/09 00:24:54;;;;;;;5.03;4.63;;;;;;;26.29;73.57;99382.59;5110963;28;20212;-67
2022/08/09 00:27:22;;;;;;;4.73;4.53;;;;;;;26.21;74.74;99387.75;5111229;28;20696;-67
2022/08/09 00:29:49;;;;;;;4.90;4.67;;;;;;;26.13;74.72;99385.84;5110797;28;20586;-67
2022/08/09 00:32:16;;;;;;;4.43;4.13;;;;;;;25.95;74.88;99371.78;5110915;28;20197;-67
2022/08/09 00:34:44;;;;;;;5.37;4.97;;;;;;;25.96;74.97;99390.06;5111397;28;20277;-67
2022/08/09 00:37:10;;;;;;;5.77;5.33;;;;;;;25.86;75.31;99393.66;5110363;28;20195;-67
2022/08/09 00:39:37;;;;;;;6.10;4.90;;;;;;;25.65;75.54;99393.88;5111023;28;20207;-67
2022/08/09 00:42:05;;;;;;;4.70;4.50;;;;;;;25.53;75.77;99390.56;5111250;28;20686;-67
2022/08/09 00:44:33;;;;;;;4.50;4.30;;;;;;;25.48;75.44;99394.56;5109741;28;20198;-67
2022/08/09 00:47:00;;;;;;;4.27;4.07;;;;;;;25.38;74.62;99394.56;5109944;28;20207;-67
2022/08/09 00:49:27;;;;;;;5.00;4.67;;;;;;;25.30;73.72;99394.44;5108082;28;20217;-67
2022/08/09 00:51:55;;;;;;;7.30;5.53;;;;;;;25.27;73.43;99396.50;5108836;28;20195;-67
2022/08/09 00:54:22;;;;;;;4.80;4.30;;;;;;;25.24;72.83;99399.41;5110528;28;20559;-67
2022/08/09 00:56:49;;;;;;;6.47;5.00;;;;;;;25.19;71.91;99394.59;5110807;28;20191;-67
2022/08/09 00:59:16;;;;;;;8.13;5.27;;;;;;;25.20;72.25;99406.75;5110589;28;20637;-67
2022/08/09 01:01:48;;;;;;;6.57;5.47;;;;;;;25.24;71.27;99404.66;5111006;28;20238;-67
2022/08/09 01:04:26;;;;;;;5.23;4.83;;;;;;;25.23;70.20;99410.88;5111045;28;20207;-67
2022/08/09 01:07:04;;;;;;;4.23;4.03;;;;;;;25.23;70.04;99408.25;5109501;28;20234;-67
2022/08/09 01:09:37;;;;;;;4.37;4.17;;;;;;;25.24;70.91;99400.25;5109127;28;20586;-67
2022/08/09 01:12:12;;;;;;;5.10;4.80;;;;;;;25.26;70.69;99400.94;5108904;28;20198;-67
2022/08/09 01:14:45;;;;;;;4.67;4.33;;;;;;;25.29;70.80;99405.09;5109144;28;20705;-67
2022/08/09 01:17:19;;;;;;;4.90;4.60;;;;;;;25.25;71.17;99403.69;5109349;28;20203;-67
2022/08/09 01:19:51;;;;;;;4.43;4.23;;;;;;;25.21;71.00;99404.94;5108198;28;20198;-66
2022/08/09 01:22:39;;;;;;;4.53;4.13;;;;;;;25.06;71.48;99409.78;5109467;28;20218;-66
2022/08/09 01:25:20;;;;;;;4.70;4.03;;;;;;;24.99;71.32;99403.41;5111409;28;20195;-66
2022/08/09 01:27:52;;;;;;;5.07;4.77;;;;;;;24.95;71.35;99402.03;5110907;28;20206;-67
2022/08/09 01:30:20;;;;;;;5.27;4.47;;;;;;;24.92;70.99;99405.75;5110808;28;20202;-67
2022/08/09 01:32:50;;;;;;;4.50;4.30;;;;;;;24.91;70.53;99398.84;5102888;28;20583;-67
2022/08/09 01:35:22;;;;;;;5.80;5.43;;;;;;;24.92;70.54;99405.75;5110836;28;20195;-67
2022/08/09 01:37:51;;;;;;;5.33;4.87;;;;;;;24.90;69.85;99409.50;5110527;28;20195;-67
2022/08/09 01:40:21;;;;;;;8.40;5.50;;;;;;;24.82;69.93;99412.78;5113307;28;20221;-67
2022/08/09 01:42:51;;;;;;;5.43;5.03;;;;;;;24.80;70.24;99406.81;5113862;27;20217;-67
2022/08/09 01:45:19;;;;;;;5.40;5.20;;;;;;;24.75;70.42;99406.38;5113021;28;20225;-66
2022/08/09 01:47:47;;;;;;;4.70;4.50;;;;;;;24.72;70.67;99396.16;5113835;28;20234;-66
2022/08/09 01:50:15;;;;;;;4.63;4.33;;;;;;;24.68;71.12;99394.81;5113908;28;20203;-67
2022/08/09 01:52:45;;;;;;;5.83;5.27;;;;;;;24.63;70.83;99391.75;5114013;28;20199;-67
2022/08/09 01:55:13;;;;;;;4.97;4.77;;;;;;;24.55;71.10;99389.00;5113457;28;20195;-67
2022/08/09 01:57:43;;;;;;;5.30;5.00;;;;;;;24.50;70.72;99385.91;5113262;28;20194;-67
2022/08/09 02:00:14;;;;;;;5.60;5.20;;;;;;;24.45;70.93;99382.88;5114360;28;20221;-67
2022/08/09 02:02:47;;;;;;;5.23;4.93;;;;;;;24.37;71.02;99374.84;5113947;28;20210;-67
2022/08/09 02:05:18;;;;;;;5.53;5.23;;;;;;;24.33;70.98;99379.53;5114277;28;20685;-67
2022/08/09 02:07:49;;;;;;;5.47;5.27;;;;;;;24.25;71.28;99378.53;5110330;28;20219;-67
2022/08/09 02:10:19;;;;;;;5.57;5.27;;;;;;;24.22;71.94;99381.44;5114232;28;20202;-67
2022/08/09 02:12:47;;;;;;;6.20;5.60;;;;;;;24.18;71.99;99380.03;5113511;28;20191;-67
2022/08/09 02:15:20;;;;;;;6.30;5.70;;;;;;;24.12;71.79;99380.56;5113645;28;20195;-67
2022/08/09 02:17:49;;;;;;;5.40;5.10;;;;;;;24.05;71.58;99375.00;5112704;28;20202;-67
2022/08/09 02:20:16;;;;;;;6.00;5.60;;;;;;;24.03;72.49;99380.38;5113235;28;20210;-66
2022/08/09 02:22:50;;;;;;;6.10;5.60;;;;;;;24.00;72.71;99370.16;5113385;28;20264;-67
2022/08/09 02:25:20;;;;;;;5.87;5.47;;;;;;;23.96;73.10;99370.56;5108996;28;20203;-67
2022/08/09 02:27:52;;;;;;;5.70;5.23;;;;;;;23.98;72.28;99374.69;5113468;28;20198;-67
2022/08/09 02:30:20;;;;;;;8.50;5.60;;;;;;;23.91;72.51;99376.16;5113452;28;20224;-66
2022/08/09 02:32:48;;;;;;;6.10;5.43;;;;;;;23.70;73.11;99369.31;5111309;28;20595;-66
2022/08/09 02:35:20;;;;;;;5.27;4.97;;;;;;;23.66;74.34;99389.69;5110861;28;20191;-67
2022/08/09 02:37:49;;;;;;;6.57;5.83;;;;;;;23.62;74.37;99393.50;5113528;28;20198;-67
2022/08/09 02:40:19;;;;;;;6.63;5.53;;;;;;;23.62;75.07;99396.13;5113400;28;20190;-66
2022/08/09 02:42:49;;;;;;;5.87;5.57;;;;;;;23.64;74.57;99391.63;5113289;28;20214;-66
2022/08/09 02:45:21;;;;;;;6.07;5.57;;;;;;;23.66;74.22;99384.44;5111630;28;20203;-67
2022/08/09 02:47:51;;;;;;;14.10;5.53;;;;;;;23.63;74.89;99389.94;5112966;28;20552;-67
2022/08/09 02:50:23;;;;;;;5.43;5.13;;;;;;;23.69;74.94;99394.66;5112632;28;20621;-67
2022/08/09 02:52:54;;;;;;;5.17;4.87;;;;;;;23.72;74.72;99391.78;5107027;27;20198;-66
2022/08/09 02:55:22;;;;;;;5.50;5.07;;;;;;;23.71;74.73;99387.53;5111865;28;20195;-66
2022/08/09 02:57:52;;;;;;;6.07;5.47;;;;;;;23.72;75.00;99391.78;5107499;28;20405;-66
2022/08/09 03:00:20;;;;;;;5.93;5.43;;;;;;;23.67;75.07;99395.75;5111663;28;20203;-66
2022/08/09 03:02:51;;;;;;;5.67;5.37;;;;;;;23.53;75.57;99387.28;5112880;28;20685;-66
2022/08/09 03:05:19;;;;;;;6.23;5.67;;;;;;;23.52;75.42;99403.13;5113164;28;20224;-66
2022/08/09 03:07:47;;;;;;;5.93;5.57;;;;;;;23.52;76.04;99397.88;5112625;28;20218;-66
2022/08/09 03:10:15;;;;;;;6.30;5.90;;;;;;;23.41;76.45;99387.47;5111676;28;20670;-67
2022/08/09 03:12:44;;;;;;;6.27;5.97;;;;;;;23.36;76.23;99387.00;5111474;28;20191;-66
2022/08/09 03:15:12;;;;;;;9.57;6.30;;;;;;;23.18;76.79;99371.03;5111051;28;20199;-67
2022/08/09 03:17:39;;;;;;;6.37;5.97;;;;;;;23.18;76.99;99381.47;5109878;28;20205;-66
2022/08/09 03:20:10;;;;;;;6.23;5.90;;;;;;;23.14;77.00;99381.84;5111523;28;20203;-66
2022/08/09 03:22:39;;;;;;;7.20;6.67;;;;;;;22.97;77.67;99364.94;5108463;28;20221;-66
2022/08/09 03:25:08;;;;;;;5.57;5.27;;;;;;;23.06;77.52;99381.66;5106894;28;20287;-66
2022/08/09 03:27:35;;;;;;;7.70;7.10;;;;;;;23.04;78.11;99391.44;5111530;28;20552;-67
2022/08/09 03:30:03;;;;;;;6.67;6.13;;;;;;;23.07;78.02;99385.94;5112191;28;20225;-66
2022/08/09 03:32:31;;;;;;;8.13;6.83;;;;;;;23.09;77.66;99384.84;5112181;28;20195;-66
2022/08/09 03:34:59;;;;;;;7.37;6.87;;;;;;;23.14;77.94;99384.47;5111991;28;20206;-66
2022/08/09 03:37:27;;;;;;;6.80;6.30;;;;;;;23.12;77.33;99382.00;5112225;28;20206;-66
2022/08/09 03:39:54;;;;;;;7.90;7.27;;;;;;;23.14;77.37;99381.84;5111745;28;20205;-66
2022/08/09 03:42:21;;;;;;;6.97;6.57;;;;;;;23.17;77.90;99386.81;5110801;28;20214;-67
2022/08/09 03:44:48;;;;;;;7.67;6.90;;;;;;;23.20;78.00;99378.75;5111284;28;20263;-65
2022/08/09 03:47:15;;;;;;;10.40;6.50;;;;;;;23.23;77.64;99388.97;5110897;28;20571;-66
2022/08/09 03:49:42;;;;;;;8.93;8.17;;;;;;;23.30;77.15;99380.47;5111964;28;20202;-65
2022/08/09 03:52:11;;;;;;;8.27;7.43;;;;;;;23.26;76.48;99370.41;5111191;28;20187;-65
2022/08/09 03:54:40;;;;;;;7.70;7.10;;;;;;;23.33;76.87;99387.22;5111743;28;20199;-65
2022/08/09 03:57:10;;;;;;;7.87;7.27;;;;;;;23.33;77.37;99384.59;5111802;28;20190;-65
2022/08/09 03:59:37;;;;;;;8.03;7.13;;;;;;;23.37;76.62;99383.41;5112012;28;20198;-65
2022/08/09 04:02:05;;;;;;;7.50;6.90;;;;;;;23.46;77.18;99383.50;5111908;27;20555;-65
2022/08/09 04:04:33;;;;;;;7.33;6.77;;;;;;;23.53;76.68;99383.81;5111171;28;20217;-66
2022/08/09 04:07:00;;;;;;;8.57;7.87;;;;;;;23.59;76.21;99392.97;5111707;28;20698;-65
2022/08/09 04:09:27;;;;;;;7.60;7.03;;;;;;;23.56;75.67;99398.44;5111866;28;20198;-65
2022/08/09 04:12:25;;;;;;;7.57;6.93;;;;;;;23.46;76.20;99383.50;5111690;28;20198;-65
2022/08/09 04:14:52;;;;;;;7.13;6.73;;;;;;;23.15;76.59;99341.66;5111581;28;20191;-65
2022/08/09 04:17:18;;;;;;;6.90;6.37;;;;;;;23.46;77.26;99399.19;5106129;28;20226;-65
2022/08/09 04:19:45;;;;;;;6.87;6.13;;;;;;;23.44;77.07;99395.06;5111464;28;20267;-65
2022/08/09 04:22:12;;;;;;;7.43;6.80;;;;;;;23.36;77.21;99382.56;5111526;28;20594;-66
2022/08/09 04:24:39;;;;;;;6.50;6.07;;;;;;;23.42;77.48;99394.38;5111392;28;20702;-65
2022/08/09 04:27:06;;;;;;;5.80;5.47;;;;;;;23.35;79.19;99382.72;5110968;28;20198;-65
2022/08/09 04:29:34;;;;;;;6.67;5.97;;;;;;;23.27;79.77;99379.88;5111310;28;20224;-65
2022/08/09 04:32:01;;;;;;;6.00;5.60;;;;;;;23.18;79.41;99384.09;5111255;28;20206;-65
2022/08/09 04:34:28;;;;;;;6.40;6.10;;;;;;;23.23;79.54;99375.88;5111414;28;20199;-66
2022/08/09 04:36:55;;;;;;;5.90;5.43;;;;;;;23.24;80.10;99369.69;5111317;28;20202;-65
2022/08/09 04:39:22;;;;;;;6.50;6.00;;;;;;;23.27;80.15;99372.88;5110719;28;20670;-66
2022/08/09 04:41:49;;;;;;;5.80;5.30;;;;;;;23.39;80.09;99365.81;5110594;28;20659;-65
2022/08/09 04:44:16;;;;;;;7.43;5.40;;;;;;;23.55;79.63;99368.84;5111370;28;20206;-65
2022/08/09 04:46:44;;;;;;;5.43;5.13;;;;;;;23.66;78.61;99363.50;5111402;28;20191;-65
2022/08/09 04:49:11;;;;;;;6.77;6.37;;;;;;;23.81;78.67;99367.44;5111513;28;20566;-66
2022/08/09 04:51:38;;;;;;;5.87;5.37;;;;;;;23.97;77.80;99362.53;5111485;28;20195;-66
2022/08/09 04:54:05;;;;;;;5.40;5.10;;;;;;;24.12;75.94;99346.50;5111184;28;20202;-65
2022/08/09 04:56:32;;;;;;;6.10;5.60;;;;;;;24.29;75.75;99364.22;5110816;28;20210;-65
2022/08/09 04:58:59;;;;;;;6.23;5.70;;;;;;;24.48;74.86;99366.91;5110514;28;20199;-66
2022/08/09 05:01:26;;;;;;;6.43;5.47;;;;;;;24.65;74.87;99371.50;5110710;28;20586;-66
2022/08/09 05:03:54;;;;;;;5.73;5.30;;;;;;;24.84;72.76;99374.16;5111130;28;20218;-65
2022/08/09 05:06:21;;;;;;;5.93;5.53;;;;;;;24.99;73.47;99364.06;5110391;28;20229;-65
2022/08/09 05:08:48;;;;;;;6.17;5.77;;;;;;;25.33;70.76;99380.22;5111145;28;20260;-66
2022/08/09 05:11:14;;;;;;;5.83;5.30;;;;;;;25.46;68.92;99386.00;5111315;28;20230;-66
2022/08/09 05:13:41;;;;;;;6.00;5.23;;;;;;;25.60;67.50;99388.22;5111277;28;20210;-66
2022/08/09 05:16:10;;;;;;;6.20;5.80;;;;;;;25.71;66.81;99380.19;5115095;28;20197;-66
2022/08/09 05:18:37;;;;;;;5.93;5.43;;;;;;;25.68;67.16;99369.97;5114540;28;20186;-68
2022/08/09 05:21:05;;;;;;;5.40;5.10;;;;;;;25.90;65.76;99387.16;5114792;28;20201;-66
2022/08/09 05:23:32;;;;;;;5.33;5.03;;;;;;;25.96;66.05;99382.16;5114772;28;20708;-66
2022/08/09 05:25:59;;;;;;;5.60;5.30;;;;;;;26.17;65.58;99391.66;5115012;28;20198;-65
2022/08/09 05:28:26;;;;;;;6.00;5.40;;;;;;;26.27;63.40;99393.25;5115015;28;20209;-65
2022/08/09 05:30:53;;;;;;;4.97;4.77;;;;;;;26.31;63.02;99393.78;5113632;28;20195;-65
2022/08/09 05:33:20;;;;;;;4.27;4.07;;;;;;;26.43;64.81;99387.38;5114821;28;20194;-65
2022/08/09 05:35:47;;;;;;;4.97;4.63;;;;;;;26.60;62.63;99386.56;5114938;28;20713;-66
2022/08/09 05:38:15;;;;;;;4.33;4.07;;;;;;;26.66;61.42;99383.34;5113269;28;20207;-65
2022/08/09 05:40:42;;;;;;;6.10;4.20;;;;;;;26.76;60.88;99393.81;5114209;28;20562;-65
2022/08/09 05:43:09;;;;;;;4.27;3.97;;;;;;;26.84;62.41;99386.88;5111390;28;20218;-65
2022/08/09 05:45:36;;;;;;;4.60;4.30;;;;;;;27.05;61.13;99389.19;5111842;28;20343;-66
2022/08/09 05:48:03;;;;;;;4.10;3.80;;;;;;;27.36;62.32;99387.81;5112618;28;20697;-67
2022/08/09 05:50:30;;;;;;;4.57;4.27;;;;;;;27.67;60.81;99385.59;5112126;28;20285;-67
2022/08/09 05:52:56;;;;;;;4.53;3.93;;;;;;;27.91;57.37;99384.91;5110374;28;20206;-67
2022/08/09 05:55:25;;;;;;;3.87;3.67;;;;;;;28.08;57.07;99384.84;5109916;28;20578;-67
2022/08/09 05:57:52;;;;;;;3.97;3.67;;;;;;;28.19;56.85;99385.56;5110730;28;20670;-68
2022/08/09 06:00:19;;;;;;;4.47;4.17;;;;;;;28.40;56.05;99393.91;5111701;28;20226;-67
2022/08/09 06:02:46;;;;;;;3.97;3.77;;;;;;;28.61;53.61;99384.56;5109893;28;20222;-67
2022/08/09 06:05:13;;;;;;;4.10;3.90;;;;;;;28.60;53.27;99393.47;5111298;28;20198;-67
2022/08/09 06:07:40;;;;;;;5.37;3.50;;;;;;;28.72;52.72;99387.91;5106974;28;20231;-67
2022/08/09 06:10:08;;;;;;;3.70;3.40;;;;;;;28.76;53.74;99395.34;5109743;28;20590;-67
2022/08/09 06:12:37;;;;;;;4.33;4.03;;;;;;;28.85;52.39;99394.38;5112469;28;20674;-67
2022/08/09 06:15:05;;;;;;;3.33;3.13;;;;;;;28.96;51.71;99383.50;5106966;28;20198;-67
2022/08/09 06:17:32;;;;;;;3.80;3.47;;;;;;;29.01;51.58;99391.75;5112431;28;20690;-67
2022/08/09 06:19:58;;;;;;;3.63;3.43;;;;;;;28.99;51.88;99380.53;5112064;28;20256;-66
2022/08/09 06:22:25;;;;;;;3.53;3.27;;;;;;;29.00;49.74;99387.47;5110619;28;20199;-71
2022/08/09 06:24:52;;;;;;;8.47;4.93;;;;;;;29.07;51.70;99388.47;5112237;28;20202;-70
2022/08/09 06:27:19;;;;;;;7.17;5.67;;;;;;;29.02;48.93;99385.47;5110890;28;20713;-65
2022/08/09 06:29:47;;;;;;;7.03;6.60;;;;;;;29.22;53.49;99382.50;5112001;28;20287;-66
2022/08/09 06:32:14;;;;;;;6.60;6.00;;;;;;;29.51;52.75;99388.13;5110102;28;20198;-66
2022/08/09 06:34:41;;;;;;;8.57;7.23;;;;;;;29.62;49.96;99378.06;5108761;28;20194;-66
2022/08/09 06:37:08;;;;;;;9.77;8.83;;;;;;;29.79;50.74;99380.69;5113152;27;20202;-66
2022/08/09 06:39:35;;;;;;;12.03;10.83;;;;;;;29.92;50.15;99371.22;5110031;28;20225;-66
2022/08/09 06:42:01;;;;;;;14.07;11.77;;;;;;;29.98;46.93;99367.09;5111141;28;20199;-66
2022/08/09 06:44:28;;;;;;;13.23;11.85;;;;;;;30.06;47.39;99365.25;5111009;28;20211;-69
2022/08/09 06:46:56;;;;;;;12.15;9.60;;;;;;;30.33;46.36;99361.34;5111492;28;20573;-66
2022/08/09 06:49:24;;;;;;;12.18;10.43;;;;;;;30.79;47.13;99372.84;5108650;28;20662;-67
2022/08/09 06:51:51;;;;;;;9.40;8.52;;;;;;;31.02;48.27;99365.72;5112244;28;20791;-67
2022/08/09 06:54:18;;;;;;;6.63;6.13;;;;;;;31.09;46.30;99361.38;5111362;28;20206;-67
2022/08/09 06:56:46;;;;;;;6.18;5.78;;;;;;;31.05;45.22;99368.03;5113325;28;20257;-66
2022/08/09 06:59:17;;;;;;;6.43;6.00;;;;;;;31.09;44.88;99361.38;5112575;28;20198;-66
2022/08/09 07:01:44;;;;;;;6.50;6.10;;;;;;;31.30;47.77;99365.19;5112676;28;20251;-66
2022/08/09 07:04:13;;;;;;;5.65;5.15;;;;;;;31.47;44.74;99369.34;5113807;28;20226;-67
2022/08/09 07:06:41;;;;;;;7.28;5.78;;;;;;;31.54;45.84;99362.31;5111851;28;20238;-66
2022/08/09 07:09:08;;;;;;;5.30;5.00;;;;;;;31.79;44.35;99360.25;5113657;28;20709;-67
2022/08/09 07:11:35;;;;;;;7.68;5.20;;;;;;;31.98;44.47;99360.53;5113058;28;20205;-66
2022/08/09 07:14:03;;;;;;;5.15;4.75;;;;;;;32.19;44.13;99357.97;5112186;28;20670;-67
2022/08/09 07:16:33;;;;;;;4.80;4.50;;;;;;;32.26;42.53;99368.66;5113800;28;20214;-66
2022/08/09 07:19:01;;;;;;;5.47;5.18;;;;;;;32.41;44.98;99358.03;5110532;28;20198;-66
2022/08/09 07:21:30;;;;;;;5.18;4.68;;;;;;;32.62;40.03;99363.38;5113308;28;20194;-66
2022/08/09 07:23:57;;;;;;;5.35;5.03;;;;;;;32.68;41.29;99346.69;5113343;28;20225;-66
2022/08/09 07:26:25;;;;;;;4.28;3.97;;;;;;;32.93;39.61;99360.41;5110517;28;20206;-67
2022/08/09 07:28:53;;;;;;;4.85;4.55;;;;;;;33.13;43.15;99367.59;5112878;28;20407;-66
2022/08/09 07:31:20;;;;;;;5.15;4.75;;;;;;;33.35;37.72;99376.34;5111026;28;20199;-67
2022/08/09 07:33:48;;;;;;;4.65;4.45;;;;;;;33.50;39.34;99365.66;5109624;28;20205;-67
2022/08/09 07:36:15;;;;;;;5.50;4.97;;;;;;;33.71;37.82;99373.56;5113378;28;20560;-66
2022/08/09 07:38:44;;;;;;;5.97;5.53;;;;;;;33.82;37.58;99383.69;5111637;28;20289;-66
2022/08/09 07:41:11;;;;;;;5.20;4.80;;;;;;;34.12;40.11;99384.28;5109121;28;20232;-65
2022/08/09 07:43:39;;;;;;;4.68;4.28;;;;;;;34.21;37.34;99383.94;5112849;28;20217;-66
2022/08/09 07:46:07;;;;;;;7.47;4.32;;;;;;;34.21;35.35;99378.59;5113275;28;20198;-68
2022/08/09 07:48:35;;;;;;;5.53;5.10;;;;;;;34.29;35.44;99383.75;5113172;28;20230;-67
2022/08/09 07:51:02;;;;;;;4.72;4.53;;;;;;;34.44;34.64;99380.94;5113413;28;20199;-66
2022/08/09 07:53:29;;;;;;;6.57;4.70;;;;;;;34.44;35.43;99375.63;5115551;28;20535;-67
2022/08/09 07:55:58;;;;;;;5.72;4.45;;;;;;;34.47;35.56;99379.72;5113814;28;20194;-67
2022/08/09 07:58:26;;;;;;;7.20;5.35;;;;;;;34.37;35.12;99377.44;5113739;28;20268;-67
2022/08/09 08:00:54;;;;;;;5.55;5.15;;;;;;;34.60;38.26;99382.41;5113484;28;20206;-68
2022/08/09 08:03:21;;;;;;;5.00;3.97;;;;;;;34.72;34.76;99375.50;5113240;28;20237;-67
2022/08/09 08:05:48;;;;;;;4.90;3.60;;;;;;;34.88;31.83;99380.47;5108856;28;20247;-67
2022/08/09 08:08:16;;;;;;;3.47;3.28;;;;;;;35.12;32.35;99377.22;5109987;28;20227;-66
2022/08/09 08:10:43;;;;;;;6.97;4.20;;;;;;;35.33;32.90;99376.22;5113044;28;20211;-67
2022/08/09 08:13:12;;;;;;;4.40;4.10;;;;;;;35.53;33.87;99378.88;5114787;28;20259;-68
2022/08/09 08:15:43;;;;;;;4.07;3.80;;;;;;;35.76;31.30;99373.94;5115951;28;20194;-67
2022/08/09 08:18:13;;;;;;;3.50;3.30;;;;;;;35.97;33.52;99376.34;5115624;28;20211;-67
2022/08/09 08:20:41;;;;;;;3.63;3.42;;;;;;;35.90;29.02;99370.19;5114667;28;20198;-67
2022/08/09 08:23:10;;;;;;;2.70;2.50;;;;;;;35.99;31.64;99370.81;5115137;28;20202;-66
2022/08/09 08:25:39;;;;;;;3.22;3.03;;;;;;;36.23;28.00;99365.59;5115502;28;20251;-67
2022/08/09 08:28:07;;;;;;;5.18;3.08;;;;;;;36.39;28.51;99361.63;5115372;28;20205;-66
2022/08/09 08:30:35;;;;;;;3.05;2.95;;;;;;;36.46;28.54;99361.56;5113027;28;20190;-66
2022/08/09 08:33:02;;;;;;;2.70;2.50;;;;;;;36.51;27.25;99372.47;5111782;28;20199;-67
2022/08/09 08:35:29;;;;;;;3.10;2.72;;;;;;;36.50;26.95;99370.81;5111607;28;20198;-66
2022/08/09 08:37:56;;;;;;;3.05;2.60;;;;;;;36.52;26.78;99368.72;5111766;28;20201;-67
2022/08/09 08:40:23;;;;;;;3.20;3.00;;;;;;;36.25;27.52;99368.84;5111478;28;20202;-67
2022/08/09 08:42:50;;;;;;;2.70;2.50;;;;;;;36.19;27.75;99358.25;5111599;28;20194;-68
2022/08/09 08:45:22;;;;;;;2.85;2.65;;;;;;;36.37;28.38;99355.69;5111699;28;20752;-67
2022/08/09 08:47:50;;;;;;;3.35;3.08;;;;;;;36.64;28.17;99345.69;5111663;28;20191;-67
2022/08/09 08:50:18;;;;;;;2.83;2.72;;;;;;;36.62;29.01;99337.88;5114400;28;20198;-66
2022/08/09 08:52:46;;;;;;;4.03;3.22;;;;;;;36.48;28.29;99324.81;5114555;28;20251;-67
2022/08/09 08:55:14;;;;;;;3.42;3.13;;;;;;;36.32;28.25;99321.59;5116027;28;20570;-66
2022/08/09 08:57:42;;;;;;;2.88;2.63;;;;;;;36.57;27.95;99339.56;5115754;28;20233;-67
2022/08/09 09:00:10;;;;;;;4.03;3.30;;;;;;;36.81;29.27;99342.28;5116078;28;20199;-67
2022/08/09 09:02:38;;;;;;;3.50;2.83;;;;;;;36.36;28.43;99338.00;5115736;28;20586;-66
2022/08/09 09:05:11;;;;;;;5.10;3.25;;;;;;;36.31;26.78;99330.66;5115628;28;20217;-67
2022/08/09 09:07:39;;;;;;;3.13;2.80;;;;;;;36.48;28.52;99324.81;5103535;28;20729;-67
2022/08/09 09:10:08;;;;;;;2.97;2.88;;;;;;;36.86;28.85;99328.28;5115623;28;20256;-66
2022/08/09 09:12:36;;;;;;;2.67;2.53;;;;;;;37.19;27.82;99334.19;5115643;28;20264;-67
2022/08/09 09:15:06;;;;;;;6.68;2.70;;;;;;;37.13;27.64;99335.06;5115707;28;20578;-67
2022/08/09 09:17:34;;;;;;;3.10;2.63;;;;;;;37.08;27.11;99326.91;5115687;28;20255;-67
2022/08/09 09:20:00;;;;;;;2.45;2.33;;;;;;;37.19;26.82;99334.19;5115719;28;20328;-66
2022/08/09 09:22:48;;;;;;;2.95;2.85;;;;;;;37.35;26.55;99322.94;5115740;28;20683;-66
2022/08/09 09:25:30;;;;;;;2.60;2.50;;;;;;;37.53;26.44;99314.16;5115165;28;20210;-66
2022/08/09 09:27:57;;;;;;;3.35;2.53;;;;;;;37.61;26.77;99323.75;5112362;28;20190;-67
2022/08/09 09:30:24;;;;;;;2.85;2.58;;;;;;;37.33;25.38;99319.66;5114937;28;20206;-67
2022/08/09 09:33:05;;;;;;;2.90;2.80;;;;;;;37.40;25.03;99316.09;5115070;28;20190;-67
2022/08/09 09:35:32;;;;;;;2.15;2.05;;;;;;;37.66;27.12;99310.50;5113143;28;20208;-67
2022/08/09 09:38:00;;;;;;;3.00;2.90;;;;;;;37.43;24.40;99318.34;5115116;28;20241;-67
2022/08/09 09:40:43;;;;;;;2.63;2.50;;;;;;;37.10;25.47;99319.47;5114852;28;20281;-67
2022/08/09 09:43:17;;;;;;;4.95;2.80;;;;;;;36.89;27.00;99317.16;5114703;27;20234;-67
2022/08/09 09:45:49;;;;;;;2.97;2.78;;;;;;;36.84;25.51;99312.44;5114826;28;20211;-67
2022/08/09 09:48:17;;;;;;;2.25;2.15;;;;;;;36.75;24.27;99312.94;5114498;28;20191;-67
2022/08/09 09:50:45;;;;;;;2.10;2.00;;;;;;;36.35;24.28;99308.88;5114278;28;20237;-67
2022/08/09 09:53:19;;;;;;;2.33;1.67;;;;;;;36.32;24.73;99302.06;5114651;28;20194;-66
2022/08/09 09:55:58;;;;;;;3.53;1.80;;;;;;;36.39;24.47;99302.03;5114459;28;20223;-66
2022/08/09 09:58:26;;;;;;;1.48;1.48;;;;;;;36.81;24.13;99298.69;5114578;28;20582;-67
2022/08/09 10:00:54;;;;;;;1.70;1.60;;;;;;;36.56;23.29;99305.88;5113755;28;20201;-67
2022/08/09 10:03:42;;;;;;;1.27;1.27;;;;;;;35.92;21.47;99289.94;5113533;28;20201;-66
2022/08/09 10:06:11;;;;;;;1.20;1.20;;;;;;;35.28;21.89;99296.84;5111799;28;20195;-67
2022/08/09 10:08:39;;;;;;;1.38;1.27;;;;;;;34.68;23.24;99305.03;5113458;28;20583;-67
2022/08/09 10:11:21;;;;;;;4.07;1.45;;;;;;;35.01;22.88;99300.53;5113412;28;20206;-69
2022/08/09 10:13:48;;;;;;;1.27;1.23;;;;;;;35.24;21.82;99290.31;5113575;28;20202;-66
2022/08/09 10:16:16;;;;;;;4.63;1.50;;;;;;;35.45;22.55;99275.06;5111322;28;20578;-66
2022/08/09 10:19:08;;;;;;;9.68;3.08;;;;;;;35.46;22.37;99292.72;5113263;28;20291;-66
2022/08/09 10:21:36;;;;;;;1.52;1.45;;;;;;;35.37;21.49;99283.31;5113087;28;20209;-69
2022/08/09 10:24:05;;;;;;;3.92;1.48;;;;;;;35.53;23.49;99291.69;5111580;28;20305;-65
2022/08/09 10:26:32;;;;;;;8.98;2.13;;;;;;;35.61;22.16;99303.97;5112186;27;20214;-66
2022/08/09 10:28:59;;;;;;;21.13;5.35;;;;;;;35.66;22.87;99288.19;5111824;28;20460;-67
2022/08/09 10:31:26;;;;;;;2.78;2.17;;;;;;;35.72;23.32;99292.69;5114981;28;20281;-68
2022/08/09 10:33:53;;;;;;;4.55;2.20;;;;;;;35.65;22.52;99298.03;5114540;28;20203;-69
2022/08/09 10:36:20;;;;;;;1.95;1.85;;;;;;;35.69;23.31;99299.25;5114286;28;20202;-66
2022/08/09 10:38:51;;;;;;;2.70;2.28;;;;;;;35.36;24.12;99302.97;5114344;28;20694;-68
2022/08/09 10:41:20;;;;;;;4.40;2.47;;;;;;;35.21;22.96;99301.38;5114276;28;20198;-68
2022/08/09 10:43:49;;;;;;;2.20;2.05;;;;;;;35.30;23.72;99294.81;5113569;28;20198;-67
2022/08/09 10:46:32;;;;;;;26.25;6.30;;;;;;;35.72;23.87;99304.19;5113792;28;20662;-67
2022/08/09 10:49:06;;;;;;;6.07;2.00;;;;;;;35.44;23.72;99306.28;5101825;28;20195;-67
2022/08/09 10:51:48;;;;;;;65.85;10.10;;;;;;;35.54;25.47;99298.66;5111058;28;20430;-74
2022/08/09 10:54:15;;;;;;;3.58;2.83;;;;;;;35.58;25.24;99301.72;5115523;28;20190;-74
2022/08/09 10:56:43;;;;;;;93.63;11.15;;;;;;;35.54;25.96;99300.50;5107380;28;20200;-74
2022/08/09 10:59:30;;;;;;;2.42;2.08;;;;;;;35.52;24.10;99297.22;5113270;28;20199;-73
2022/08/09 11:01:57;;;;;;;2.08;1.98;;;;;;;35.18;25.09;99301.81;5116241;28;20670;-74
2022/08/09 11:04:25;;;;;;;3.70;1.92;;;;;;;35.20;24.80;99293.59;5105664;28;20222;-74
2022/08/09 11:07:28;;;;;;;4.75;2.25;;;;;;;35.13;23.70;99298.91;5101818;28;20273;-76
2022/08/09 11:09:55;;;;;;;1.90;1.80;;;;;;;35.15;23.75;99294.22;5113278;28;20239;-73
2022/08/09 11:12:24;;;;;;;2.10;2.00;;;;;;;35.14;25.51;99289.91;5106919;28;20207;-73
2022/08/09 11:14:54;;;;;;;1.73;1.63;;;;;;;35.06;25.30;99297.28;5104777;28;20190;-77
2022/08/09 11:17:54;;;;;;;1.83;1.60;;;;;;;34.80;25.63;99282.06;5113956;27;20251;-74
2022/08/09 11:20:46;;;;;;;1.63;1.60;;;;;;;34.96;24.63;99276.34;5111896;28;20201;-77
2022/08/09 11:23:14;;;;;;;2.00;1.58;;;;;;;35.17;24.47;99286.81;5086309;28;20247;-73
2022/08/09 11:25:44;;;;;;;1.80;1.70;;;;;;;35.31;24.65;99292.97;5113832;28;20210;-78
2022/08/09 11:28:40;;;;;;;2.85;2.10;;;;;;;35.24;23.68;99298.31;5113747;28;20206;-77
2022/08/09 11:31:48;;;;;;;1.90;1.80;;;;;;;35.19;25.04;99282.09;5111077;28;20206;-75
2022/08/09 11:34:34;;;;;;;1.83;1.73;;;;;;;35.34;24.52;99291.72;5113902;28;20234;-76
2022/08/09 11:37:03;;;;;;;1.83;1.73;;;;;;;35.33;23.20;99290.06;5115540;28;20205;-74
2022/08/09 11:39:30;;;;;;;2.42;2.13;;;;;;;35.30;22.32;99289.47;5115606;27;20195;-74
2022/08/09 11:41:57;;;;;;;2.80;1.83;;;;;;;35.21;23.82;99289.91;5114219;28;20201;-71
2022/08/09 11:44:45;;;;;;;3.28;2.03;;;;;;;35.03;23.49;99284.31;5114309;28;20218;-75